createdAt,value
2018-08-04T00:00:59.914Z,99.23
2018-08-04T00:05:05.127Z,141.57
2018-08-04T00:09:12.816Z,125.20
2018-08-04T00:13:17.180Z,71.25
2018-08-04T00:17:21.846Z,182.80
2018-08-04T00:21:26.398Z,343.50
2018-08-04T00:25:31.052Z,359.03
2018-08-04T00:29:35.396Z,342.10
2018-08-04T00:33:39.631Z,345.53
2018-08-04T00:37:44.133Z,315.13
2018-08-04T00:41:48.381Z,296.00
2018-08-04T00:45:52.818Z,314.73
2018-08-04T00:49:59.208Z,315.83
2018-08-04T00:54:03.447Z,289.40
2018-08-04T00:58:07.868Z,304.53
2018-08-04T01:02:12.156Z,315.53
2018-08-04T01:06:16.653Z,308.30
2018-08-04T01:10:20.978Z,342.40
2018-08-04T01:14:25.712Z,310.80
2018-08-04T01:18:30.192Z,311.17
2018-08-04T01:22:36.187Z,311.23
2018-08-04T01:26:41.256Z,267.33
2018-08-04T01:30:45.827Z,282.63
2018-08-04T01:34:50.412Z,271.27
2018-08-04T01:38:54.886Z,275.03
2018-08-04T01:42:59.314Z,335.33
2018-08-04T01:47:03.717Z,539.13
2018-08-04T01:51:07.997Z,390.67
2018-08-04T01:55:13.729Z,433.73
2018-08-04T01:59:18.183Z,571.07
2018-08-04T02:03:23.007Z,505.03
2018-08-04T02:07:27.836Z,499.90
2018-08-04T02:11:32.844Z,465.43
2018-08-04T02:15:37.260Z,554.27
2018-08-04T02:19:41.896Z,534.53
2018-08-04T02:23:46.399Z,569.63
2018-08-04T02:27:50.989Z,563.37
2018-08-04T02:31:56.645Z,596.93
2018-08-04T02:36:01.203Z,522.00
2018-08-04T02:40:06.213Z,384.10
2018-08-04T02:44:11.046Z,448.30
2018-08-04T02:48:15.555Z,324.90
2018-08-04T02:52:20.097Z,341.53
2018-08-04T02:56:24.836Z,172.10
2018-08-04T03:00:29.492Z,80.13
2018-08-04T03:04:34.123Z,89.37
2018-08-04T03:08:38.838Z,161.33
2018-08-04T03:12:43.032Z,232.70
2018-08-04T03:16:47.660Z,179.07
2018-08-04T03:20:52.184Z,328.43
2018-08-04T03:24:57.003Z,263.20
2018-08-04T03:29:01.988Z,193.37
2018-08-04T03:33:06.357Z,171.60
2018-08-04T03:37:11.230Z,102.00
2018-08-04T03:41:17.004Z,106.13
2018-08-04T03:45:21.440Z,132.80
2018-08-04T03:49:27.352Z,131.30
2018-08-04T03:53:32.383Z,121.97
2018-08-04T03:57:37.209Z,133.47
2018-08-04T04:01:41.681Z,108.70
2018-08-04T04:05:46.159Z,110.80
2018-08-04T04:09:51.557Z,98.27
2018-08-04T04:13:56.403Z,119.90
2018-08-04T04:18:01.384Z,159.97
2018-08-04T04:22:05.956Z,118.20
2018-08-04T04:26:10.830Z,125.83
2018-08-04T04:30:16.345Z,127.30
2018-08-04T04:34:20.989Z,150.33
2018-08-04T04:38:25.561Z,111.57
2018-08-04T04:42:30.078Z,137.60
2018-08-04T04:46:39.614Z,214.50
2018-08-04T04:50:44.328Z,467.83
2018-08-04T04:54:49.527Z,530.80
2018-08-04T04:58:54.280Z,555.93
2018-08-04T05:02:58.815Z,541.80
2018-08-04T05:07:03.976Z,534.73
2018-08-04T05:11:08.717Z,438.10
2018-08-04T05:15:13.345Z,415.47
2018-08-04T05:19:18.051Z,341.27
2018-08-04T05:23:22.508Z,295.03
2018-08-04T05:27:26.812Z,394.97
2018-08-04T05:31:31.313Z,156.37
2018-08-04T05:35:36.028Z,102.97
2018-08-04T05:39:41.239Z,84.10
2018-08-04T05:43:45.523Z,73.33
2018-08-04T05:47:50.941Z,73.47
2018-08-04T05:51:55.500Z,83.97
2018-08-04T05:55:59.951Z,72.63
2018-08-04T06:00:05.289Z,80.73
2018-08-04T06:04:09.610Z,56.17
2018-08-04T06:08:14.270Z,63.73
2018-08-04T06:12:18.577Z,72.17
2018-08-04T06:16:22.973Z,56.20
2018-08-04T06:20:27.276Z,56.10
2018-08-04T06:24:31.509Z,319.30
2018-08-04T06:28:35.908Z,490.23
2018-08-04T06:32:40.548Z,409.43
2018-08-04T06:36:45.228Z,351.33
2018-08-04T06:40:49.652Z,419.07
2018-08-04T06:44:54.473Z,288.03
2018-08-04T06:48:58.731Z,301.83
2018-08-04T06:53:03.165Z,329.87
2018-08-04T06:57:08.349Z,325.07
2018-08-04T07:01:12.863Z,306.27
2018-08-04T07:05:17.487Z,250.63
2018-08-04T07:09:21.737Z,108.63
2018-08-04T07:13:26.532Z,76.93
2018-08-04T07:17:30.874Z,60.97
2018-08-04T07:21:35.747Z,62.07
2018-08-04T07:25:40.440Z,60.97
2018-08-04T07:29:45.266Z,54.77
2018-08-04T07:33:49.711Z,48.23
2018-08-04T07:37:54.248Z,45.70
2018-08-04T07:41:59.055Z,50.20
2018-08-04T07:46:03.807Z,44.60
2018-08-04T07:50:08.471Z,53.53
2018-08-04T07:54:12.946Z,50.50
2018-08-04T07:58:17.256Z,47.27
2018-08-04T08:02:21.820Z,45.07
2018-08-04T08:06:26.184Z,41.13
2018-08-04T08:10:31.464Z,45.10
2018-08-04T08:14:36.000Z,43.67
2018-08-04T08:18:40.403Z,42.37
2018-08-04T08:22:45.160Z,43.40
2018-08-04T08:26:49.616Z,44.73
2018-08-04T08:30:54.001Z,40.97
2018-08-04T08:34:58.742Z,40.10
2018-08-04T08:39:03.771Z,42.00
2018-08-04T08:43:08.494Z,42.37
2018-08-04T08:47:12.838Z,38.90
2018-08-04T08:51:17.064Z,37.57
2018-08-04T08:55:21.481Z,44.83
2018-08-04T08:59:25.961Z,41.73
2018-08-04T09:03:30.323Z,39.47
2018-08-04T09:07:35.267Z,40.10
2018-08-04T09:11:39.644Z,40.40
2018-08-04T09:15:43.930Z,41.70
2018-08-04T09:19:48.580Z,54.13
2018-08-04T09:23:52.966Z,69.17
2018-08-04T09:27:57.631Z,51.40
2018-08-04T09:32:01.896Z,40.13
2018-08-04T09:36:06.393Z,39.90
2018-08-04T09:40:12.866Z,44.10
2018-08-04T09:44:17.087Z,45.80
2018-08-04T09:48:21.463Z,46.37
2018-08-04T09:52:25.733Z,37.50
2018-08-04T09:56:30.503Z,38.00
2018-08-04T10:00:40.029Z,37.17
2018-08-04T10:04:44.261Z,35.77
2018-08-04T10:08:49.694Z,39.03
2018-08-04T10:12:53.953Z,37.40
2018-08-04T10:16:58.248Z,39.13
2018-08-04T10:21:02.528Z,36.33
2018-08-04T10:25:07.519Z,35.83
2018-08-04T10:29:12.137Z,36.10
2018-08-04T10:33:16.601Z,35.10
2018-08-04T10:37:21.080Z,39.43
2018-08-04T10:41:25.416Z,39.53
2018-08-04T10:45:29.842Z,36.80
2018-08-04T10:49:34.112Z,37.60
2018-08-04T10:53:38.976Z,35.90
2018-08-04T10:57:43.375Z,34.57
2018-08-04T11:01:48.045Z,35.03
2018-08-04T11:05:52.498Z,34.10
2018-08-04T11:09:56.950Z,36.33
2018-08-04T11:14:01.356Z,34.13
2018-08-04T11:18:05.701Z,37.10
2018-08-04T11:22:09.931Z,33.47
2018-08-04T11:26:14.663Z,33.90
2018-08-04T11:30:18.907Z,34.10
2018-08-04T11:34:23.341Z,35.50
2018-08-04T11:38:28.127Z,33.90
2018-08-04T11:42:32.456Z,36.10
2018-08-04T11:46:36.680Z,36.50
2018-08-04T11:50:41.421Z,38.30
2018-08-04T11:54:45.717Z,58.43
2018-08-04T11:58:49.931Z,56.03
2018-08-04T12:02:54.763Z,44.30
2018-08-04T12:06:59.279Z,41.20
2018-08-04T12:11:03.596Z,42.37
2018-08-04T12:15:07.997Z,41.47
2018-08-04T12:19:12.221Z,38.33
2018-08-04T12:23:16.475Z,41.40
2018-08-04T12:27:20.710Z,40.63
2018-08-04T12:31:25.259Z,38.43
2018-08-04T12:35:29.605Z,40.43
2018-08-04T12:39:34.203Z,36.90
2018-08-04T12:43:38.553Z,39.30
2018-08-04T12:47:42.977Z,45.47
2018-08-04T12:51:47.191Z,33.27
2018-08-04T12:55:51.631Z,35.03
2018-08-04T12:59:58.065Z,33.37
2018-08-04T13:04:07.076Z,32.83
2018-08-04T13:08:12.423Z,34.23
2018-08-04T13:12:17.684Z,34.20
2018-08-04T13:16:23.148Z,32.60
2018-08-04T13:20:28.388Z,31.53
2018-08-04T13:24:32.734Z,32.40
2018-08-04T13:28:39.298Z,36.23
2018-08-04T13:32:44.181Z,34.17
2018-08-04T13:36:49.165Z,32.73
2018-08-04T13:40:53.529Z,33.40
2018-08-04T13:44:58.000Z,33.37
2018-08-04T13:49:02.801Z,32.57
2018-08-04T13:53:07.366Z,33.30
2018-08-04T13:57:12.115Z,33.60
2018-08-04T14:01:16.381Z,33.83
2018-08-04T14:05:20.789Z,35.70
2018-08-04T14:09:25.086Z,34.07
2018-08-04T14:13:29.495Z,34.17
2018-08-04T14:17:33.948Z,31.73
2018-08-04T14:21:38.176Z,33.40
2018-08-04T14:25:42.659Z,33.27
2018-08-04T14:29:47.093Z,32.70
2018-08-04T14:34:01.179Z,33.57
2018-08-04T14:38:05.452Z,34.23
2018-08-04T14:42:09.797Z,34.87
2018-08-04T14:46:14.336Z,32.07
2018-08-04T14:50:18.616Z,33.40
2018-08-04T14:54:22.948Z,33.23
2018-08-04T14:58:27.677Z,32.43
2018-08-04T15:02:32.279Z,33.33
2018-08-04T15:06:36.925Z,32.80
2018-08-04T15:10:42.561Z,32.40
2018-08-04T15:14:46.981Z,32.73
2018-08-04T15:18:51.471Z,31.60
2018-08-04T15:22:55.908Z,32.77
2018-08-04T15:27:00.220Z,31.53
2018-08-04T15:31:04.604Z,32.17
2018-08-04T15:35:08.845Z,34.10
2018-08-04T15:39:13.080Z,35.10
2018-08-04T15:43:17.682Z,32.50
2018-08-04T15:47:22.089Z,44.83
2018-08-04T15:51:26.398Z,33.97
2018-08-04T15:55:30.662Z,35.17
2018-08-04T15:59:34.940Z,35.20
2018-08-04T16:03:39.288Z,35.93
2018-08-04T16:07:43.614Z,36.50
2018-08-04T16:11:47.875Z,37.17
2018-08-04T16:15:52.316Z,37.50
2018-08-04T16:19:56.570Z,45.20
2018-08-04T16:24:01.021Z,55.63
2018-08-04T16:28:05.664Z,58.80
2018-08-04T16:32:10.517Z,41.80
2018-08-04T16:36:14.831Z,40.23
2018-08-04T16:40:19.652Z,38.90
2018-08-04T16:44:23.878Z,38.20
2018-08-04T16:48:28.217Z,39.50
2018-08-04T16:52:32.527Z,39.37
2018-08-04T16:56:36.768Z,40.40
2018-08-04T17:00:41.132Z,40.77
2018-08-04T17:04:45.373Z,42.37
2018-08-04T17:08:49.754Z,45.30
2018-08-04T17:12:54.174Z,42.80
2018-08-04T17:16:58.381Z,42.50
2018-08-04T17:21:02.772Z,43.50
2018-08-04T17:25:08.093Z,45.60
2018-08-04T17:29:12.349Z,47.30
2018-08-04T17:33:16.740Z,46.37
2018-08-04T17:37:21.075Z,45.30
2018-08-04T17:41:25.273Z,44.50
2018-08-04T17:45:29.555Z,45.80
2018-08-04T17:49:33.941Z,50.13
2018-08-04T17:53:38.580Z,147.83
2018-08-04T17:57:43.034Z,217.47
2018-08-04T18:01:47.940Z,171.70
2018-08-04T18:05:52.288Z,129.90
2018-08-04T18:09:56.739Z,75.33
2018-08-04T18:14:01.199Z,80.07
2018-08-04T18:18:05.624Z,220.27
2018-08-04T18:22:10.224Z,238.47
2018-08-04T18:26:14.736Z,232.37
2018-08-04T18:30:19.165Z,212.00
2018-08-04T18:34:23.478Z,202.30
2018-08-04T18:38:27.712Z,148.10
2018-08-04T18:42:32.013Z,79.33
2018-08-04T18:46:36.540Z,134.00
2018-08-04T18:50:41.092Z,149.10
2018-08-04T18:54:45.384Z,144.67
2018-08-04T18:58:49.816Z,118.50
2018-08-04T19:02:54.017Z,83.40
2018-08-04T19:06:58.535Z,81.40
2018-08-04T19:11:02.904Z,51.03
2018-08-04T19:15:07.953Z,45.67
2018-08-04T19:19:12.505Z,45.20
2018-08-04T19:23:16.882Z,48.97
2018-08-04T19:27:21.245Z,49.70
2018-08-04T19:31:26.015Z,52.97
2018-08-04T19:35:30.242Z,60.63
2018-08-04T19:39:34.744Z,55.80
2018-08-04T19:43:39.340Z,53.87
2018-08-04T19:47:43.602Z,52.30
2018-08-04T19:51:48.048Z,49.90
2018-08-04T19:55:52.347Z,51.50
2018-08-04T19:59:56.611Z,51.07
2018-08-04T20:04:01.945Z,49.90
2018-08-04T20:08:06.348Z,54.40
2018-08-04T20:12:10.770Z,56.43
2018-08-04T20:16:16.001Z,57.53
2018-08-04T20:20:20.358Z,53.13
2018-08-04T20:24:25.054Z,54.60
2018-08-04T20:28:29.423Z,53.57
2018-08-04T20:32:33.634Z,55.13
2018-08-04T20:36:38.465Z,56.03
2018-08-04T20:40:43.076Z,61.10
2018-08-04T20:44:47.540Z,88.50
2018-08-04T20:48:53.157Z,118.00
2018-08-04T20:52:57.520Z,92.30
2018-08-04T20:57:01.797Z,74.33
2018-08-04T21:01:16.900Z,105.80
2018-08-04T21:05:21.232Z,110.20
2018-08-04T21:09:25.759Z,86.20
2018-08-04T21:13:30.048Z,128.00
2018-08-04T21:17:34.315Z,162.83
2018-08-04T21:21:38.812Z,156.97
2018-08-04T21:25:43.094Z,144.33
2018-08-04T21:29:47.570Z,152.87
2018-08-04T21:33:51.822Z,192.50
2018-08-04T21:37:56.072Z,209.90
2018-08-04T21:42:00.613Z,169.50
2018-08-04T21:46:04.883Z,196.63
2018-08-04T21:50:09.118Z,225.67
2018-08-04T21:58:18.890Z,217.53
2018-08-04T22:02:23.209Z,186.23
2018-08-04T22:06:36.655Z,186.07
2018-08-04T22:10:40.937Z,202.57
2018-08-04T22:14:45.247Z,160.00
2018-08-04T22:18:49.494Z,190.60
2018-08-04T22:22:53.908Z,198.77
2018-08-04T22:26:58.277Z,167.20
2018-08-04T22:31:02.491Z,180.33
2018-08-04T22:35:07.340Z,173.93
2018-08-04T22:39:11.573Z,194.87
2018-08-04T22:43:15.799Z,246.10
2018-08-04T22:47:20.171Z,254.67
2018-08-04T22:51:30.401Z,313.33
2018-08-04T22:55:34.580Z,333.67
2018-08-04T22:59:38.878Z,379.77
2018-08-04T23:07:47.424Z,392.00
2018-08-04T23:11:51.656Z,340.43
2018-08-04T23:15:56.019Z,319.93
2018-08-04T23:20:00.299Z,292.80
2018-08-04T23:24:04.550Z,215.13
2018-08-04T23:28:09.423Z,254.67
2018-08-04T23:32:13.660Z,158.77
2018-08-04T23:36:17.894Z,187.67
2018-08-04T23:40:22.619Z,112.67
2018-08-04T23:44:26.894Z,76.20
2018-08-04T23:48:31.216Z,78.47
2018-08-04T23:52:35.608Z,67.03
2018-08-04T23:56:39.885Z,60.70
